sensor_id;sensor_type;location;lat;lon;timestamp;pressure;altitude;pressure_sealevel;temperature;humidity
58658;BME280;44428;45.630;13.786;2022-11-15T00:02:09;101785.63;;;9.54;100.00
58658;BME280;44428;45.630;13.786;2022-11-15T00:04:53;101786.09;;;9.45;100.00
58658;BME280;44428;45.630;13.786;2022-11-15T00:07:37;101779.66;;;9.32;100.00
58658;BME280;44428;45.630;13.786;2022-11-15T00:10:21;101777.97;;;9.31;100.00
58658;BME280;44428;45.630;13.786;2022-11-15T00:13:10;101773.19;;;9.39;100.00
58658;BME280;44428;45.630;13.786;2022-11-15T00:15:59;101773.53;;;9.50;100.00
58658;BME280;44428;45.630;13.786;2022-11-15T00:18:43;101774.09;;;9.57;100.00
58658;BME280;44428;45.630;13.786;2022-11-15T00:21:28;101778.22;;;9.62;100.00
58658;BME280;44428;45.630;13.786;2022-11-15T00:24:12;101778.06;;;9.66;100.00
58658;BME280;44428;45.630;13.786;2022-11-15T00:26:56;101771.34;;;9.58;100.00
58658;BME280;44428;45.630;13.786;2022-11-15T00:29:40;101769.09;;;9.51;100.00
58658;BME280;44428;45.630;13.786;2022-11-15T00:32:31;101760.94;;;9.55;100.00
58658;BME280;44428;45.630;13.786;2022-11-15T00:35:15;101744.97;;;9.58;100.00
58658;BME280;44428;45.630;13.786;2022-11-15T00:37:59;101746.84;;;9.56;100.00
58658;BME280;44428;45.630;13.786;2022-11-15T00:40:43;101740.44;;;9.43;100.00
58658;BME280;44428;45.630;13.786;2022-11-15T00:43:28;101744.47;;;9.33;100.00
58658;BME280;44428;45.630;13.786;2022-11-15T00:46:12;101743.03;;;9.26;100.00
58658;BME280;44428;45.630;13.786;2022-11-15T00:48:56;101747.25;;;9.30;100.00
58658;BME280;44428;45.630;13.786;2022-11-15T00:51:40;101746.16;;;9.34;100.00
58658;BME280;44428;45.630;13.786;2022-11-15T00:54:24;101746.88;;;9.37;100.00
58658;BME280;44428;45.630;13.786;2022-11-15T00:57:09;101744.97;;;9.41;100.00
58658;BME280;44428;45.630;13.786;2022-11-15T00:59:53;101742.19;;;9.44;100.00
58658;BME280;44428;45.630;13.786;2022-11-15T01:02:37;101739.53;;;9.44;100.00
58658;BME280;44428;45.630;13.786;2022-11-15T01:55:48;101722.59;;;8.76;100.00
58658;BME280;44428;45.630;13.786;2022-11-15T01:58:33;101725.28;;;8.74;100.00
58658;BME280;44428;45.630;13.786;2022-11-15T02:01:19;101724.56;;;8.70;100.00
58658;BME280;44428;45.630;13.786;2022-11-15T02:06:54;101714.44;;;8.80;100.00
58658;BME280;44428;45.630;13.786;2022-11-15T02:09:39;101715.59;;;8.75;100.00
58658;BME280;44428;45.630;13.786;2022-11-15T02:12:23;101710.19;;;8.78;100.00
58658;BME280;44428;45.630;13.786;2022-11-15T02:15:08;101724.13;;;8.80;100.00
58658;BME280;44428;45.630;13.786;2022-11-15T02:27:27;101703.06;;;8.80;100.00
58658;BME280;44428;45.630;13.786;2022-11-15T02:36:21;101699.44;;;8.82;100.00
58658;BME280;44428;45.630;13.786;2022-11-15T02:39:27;101709.91;;;8.84;100.00
58658;BME280;44428;45.630;13.786;2022-11-15T02:42:30;101697.63;;;8.83;100.00
58658;BME280;44428;45.630;13.786;2022-11-15T02:45:39;101701.50;;;8.76;100.00
58658;BME280;44428;45.630;13.786;2022-11-15T02:48:25;101696.22;;;8.76;100.00
58658;BME280;44428;45.630;13.786;2022-11-15T02:51:10;101701.22;;;8.82;100.00
58658;BME280;44428;45.630;13.786;2022-11-15T02:53:55;101697.50;;;8.86;100.00
58658;BME280;44428;45.630;13.786;2022-11-15T02:56:40;101691.78;;;8.95;100.00
58658;BME280;44428;45.630;13.786;2022-11-15T02:59:47;101684.66;;;8.97;100.00
58658;BME280;44428;45.630;13.786;2022-11-15T03:05:56;101676.47;;;9.03;100.00
58658;BME280;44428;45.630;13.786;2022-11-15T03:12:10;101684.13;;;8.90;100.00
58658;BME280;44428;45.630;13.786;2022-11-15T03:17:53;101683.69;;;8.81;100.00
58658;BME280;44428;45.630;13.786;2022-11-15T03:20:39;101687.09;;;8.83;100.00
58658;BME280;44428;45.630;13.786;2022-11-15T03:23:25;101677.41;;;8.83;100.00
58658;BME280;44428;45.630;13.786;2022-11-15T03:26:12;101677.25;;;8.86;100.00
58658;BME280;44428;45.630;13.786;2022-11-15T03:29:11;101676.50;;;8.84;100.00
58658;BME280;44428;45.630;13.786;2022-11-15T03:32:03;101677.63;;;8.79;100.00
58658;BME280;44428;45.630;13.786;2022-11-15T03:35:17;101668.03;;;8.78;100.00
58658;BME280;44428;45.630;13.786;2022-11-15T03:38:21;101666.00;;;8.83;100.00
58658;BME280;44428;45.630;13.786;2022-11-15T03:41:14;101663.38;;;8.83;100.00
58658;BME280;44428;45.630;13.786;2022-11-15T03:44:10;101658.47;;;8.94;100.00
58658;BME280;44428;45.630;13.786;2022-11-15T03:47:08;101658.00;;;9.03;100.00
58658;BME280;44428;45.630;13.786;2022-11-15T03:49:58;101658.00;;;9.03;100.00
58658;BME280;44428;45.630;13.786;2022-11-15T03:52:48;101658.00;;;9.03;100.00
58658;BME280;44428;45.630;13.786;2022-11-15T03:55:33;101652.88;;;9.00;100.00
58658;BME280;44428;45.630;13.786;2022-11-15T03:58:17;101665.13;;;9.01;100.00
58658;BME280;44428;45.630;13.786;2022-11-15T04:01:01;101663.28;;;9.03;100.00
58658;BME280;44428;45.630;13.786;2022-11-15T04:03:45;101663.28;;;9.03;100.00
58658;BME280;44428;45.630;13.786;2022-11-15T04:06:29;101663.28;;;9.03;100.00
58658;BME280;44428;45.630;13.786;2022-11-15T04:09:14;101663.44;;;9.00;100.00
58658;BME280;44428;45.630;13.786;2022-11-15T04:11:58;101656.31;;;9.02;100.00
58658;BME280;44428;45.630;13.786;2022-11-15T04:14:42;101663.59;;;8.97;100.00
58658;BME280;44428;45.630;13.786;2022-11-15T04:17:52;101655.31;;;9.05;100.00
58658;BME280;44428;45.630;13.786;2022-11-15T04:20:37;101664.84;;;9.07;100.00
58658;BME280;44428;45.630;13.786;2022-11-15T04:23:40;101661.59;;;9.02;100.00
58658;BME280;44428;45.630;13.786;2022-11-15T04:26:43;101659.25;;;8.96;100.00
58658;BME280;44428;45.630;13.786;2022-11-15T04:29:27;101665.72;;;8.89;100.00
58658;BME280;44428;45.630;13.786;2022-11-15T04:32:21;101667.59;;;8.87;100.00
58658;BME280;44428;45.630;13.786;2022-11-15T04:35:05;101660.44;;;8.89;100.00
58658;BME280;44428;45.630;13.786;2022-11-15T04:37:50;101667.16;;;8.96;100.00
58658;BME280;44428;45.630;13.786;2022-11-15T04:40:35;101663.44;;;9.00;100.00
58658;BME280;44428;45.630;13.786;2022-11-15T04:43:20;101650.75;;;9.08;100.00
58658;BME280;44428;45.630;13.786;2022-11-15T04:46:04;101653.84;;;9.16;100.00
58658;BME280;44428;45.630;13.786;2022-11-15T04:48:48;101662.22;;;9.25;100.00
58658;BME280;44428;45.630;13.786;2022-11-15T04:51:33;101653.22;;;9.29;100.00
58658;BME280;44428;45.630;13.786;2022-11-15T04:54:17;101647.53;;;9.38;100.00
58658;BME280;44428;45.630;13.786;2022-11-15T04:57:02;101651.53;;;9.45;100.00
58658;BME280;44428;45.630;13.786;2022-11-15T04:59:46;101645.16;;;9.49;100.00
58658;BME280;44428;45.630;13.786;2022-11-15T05:02:31;101643.16;;;9.54;100.00
58658;BME280;44428;45.630;13.786;2022-11-15T05:05:35;101640.03;;;9.46;100.00
58658;BME280;44428;45.630;13.786;2022-11-15T05:08:20;101646.91;;;9.50;100.00
58658;BME280;44428;45.630;13.786;2022-11-15T05:11:04;101645.00;;;9.52;100.00
58658;BME280;44428;45.630;13.786;2022-11-15T05:13:49;101644.09;;;9.53;100.00
58658;BME280;44428;45.630;13.786;2022-11-15T05:16:34;101643.94;;;9.56;100.00
58658;BME280;44428;45.630;13.786;2022-11-15T05:19:18;101648.13;;;9.60;100.00
58658;BME280;44428;45.630;13.786;2022-11-15T05:22:02;101644.53;;;9.61;100.00
58658;BME280;44428;45.630;13.786;2022-11-15T05:24:46;101649.97;;;9.58;100.00
58658;BME280;44428;45.630;13.786;2022-11-15T05:27:31;101648.13;;;9.60;100.00
58658;BME280;44428;45.630;13.786;2022-11-15T05:30:16;101639.41;;;9.58;100.00
58658;BME280;44428;45.630;13.786;2022-11-15T05:33:00;101648.13;;;9.60;100.00
58658;BME280;44428;45.630;13.786;2022-11-15T05:35:50;101648.13;;;9.60;100.00
58658;BME280;44428;45.630;13.786;2022-11-15T05:38:38;101649.06;;;9.59;100.00
58658;BME280;44428;45.630;13.786;2022-11-15T05:41:53;101651.53;;;9.62;100.00
58658;BME280;44428;45.630;13.786;2022-11-15T05:44:43;101655.09;;;9.61;100.00
58658;BME280;44428;45.630;13.786;2022-11-15T05:47:29;101653.09;;;9.67;100.00
58658;BME280;44428;45.630;13.786;2022-11-15T05:50:15;101646.13;;;9.66;100.00
58658;BME280;44428;45.630;13.786;2022-11-15T05:53:02;101647.81;;;9.67;100.00
58658;BME280;44428;45.630;13.786;2022-11-15T05:55:47;101640.66;;;9.69;100.00
58658;BME280;44428;45.630;13.786;2022-11-15T05:58:35;101639.63;;;9.71;99.97
58658;BME280;44428;45.630;13.786;2022-11-15T06:01:20;101648.50;;;9.70;100.00
58658;BME280;44428;45.630;13.786;2022-11-15T06:04:05;101657.72;;;9.79;100.00
58658;BME280;44428;45.630;13.786;2022-11-15T06:06:49;101669.81;;;9.83;100.00
58658;BME280;44428;45.630;13.786;2022-11-15T06:09:33;101661.16;;;9.81;100.00
58658;BME280;44428;45.630;13.786;2022-11-15T06:12:17;101662.84;;;9.82;100.00
58658;BME280;44428;45.630;13.786;2022-11-15T06:15:02;101677.59;;;9.86;100.00
58658;BME280;44428;45.630;13.786;2022-11-15T06:17:46;101676.34;;;9.93;98.59
58658;BME280;44428;45.630;13.786;2022-11-15T06:20:30;101670.59;;;10.02;97.02
58658;BME280;44428;45.630;13.786;2022-11-15T06:23:14;101672.28;;;10.03;96.57
58658;BME280;44428;45.630;13.786;2022-11-15T06:25:59;101675.53;;;10.08;96.69
58658;BME280;44428;45.630;13.786;2022-11-15T06:28:44;101682.03;;;10.19;95.37
58658;BME280;44428;45.630;13.786;2022-11-15T06:31:28;101684.94;;;10.14;96.77
58658;BME280;44428;45.630;13.786;2022-11-15T06:34:12;101681.75;;;10.07;97.60
58658;BME280;44428;45.630;13.786;2022-11-15T06:36:56;101691.56;;;10.05;98.07
58658;BME280;44428;45.630;13.786;2022-11-15T06:39:40;101692.47;;;10.04;98.20
58658;BME280;44428;45.630;13.786;2022-11-15T06:42:24;101693.25;;;10.06;98.34
58658;BME280;44428;45.630;13.786;2022-11-15T06:45:09;101690.06;;;10.17;97.24
58658;BME280;44428;45.630;13.786;2022-11-15T06:47:53;101689.78;;;10.22;97.08
58658;BME280;44428;45.630;13.786;2022-11-15T06:50:37;101690.28;;;10.30;96.83
58658;BME280;44428;45.630;13.786;2022-11-15T06:53:21;101690.44;;;10.27;97.45
58658;BME280;44428;45.630;13.786;2022-11-15T06:56:06;101684.84;;;10.33;96.63
58658;BME280;44428;45.630;13.786;2022-11-15T06:58:51;101673.94;;;10.39;96.28
58658;BME280;44428;45.630;13.786;2022-11-15T07:01:35;101673.78;;;10.42;95.50
58658;BME280;44428;45.630;13.786;2022-11-15T07:04:19;101678.88;;;10.45;95.33
58658;BME280;44428;45.630;13.786;2022-11-15T07:07:04;101682.16;;;10.50;94.96
58658;BME280;44428;45.630;13.786;2022-11-15T07:09:48;101679.50;;;10.50;95.27
58658;BME280;44428;45.630;13.786;2022-11-15T07:12:32;101672.94;;;10.58;94.50
58658;BME280;44428;45.630;13.786;2022-11-15T07:15:18;101683.50;;;10.58;94.45
58658;BME280;44428;45.630;13.786;2022-11-15T07:18:03;101672.75;;;10.61;94.36
58658;BME280;44428;45.630;13.786;2022-11-15T07:20:51;101681.47;;;10.63;95.12
58658;BME280;44428;45.630;13.786;2022-11-15T07:23:36;101683.84;;;10.67;95.06
58658;BME280;44428;45.630;13.786;2022-11-15T07:26:21;101687.16;;;10.71;95.19
58658;BME280;44428;45.630;13.786;2022-11-15T07:29:05;101687.59;;;10.79;95.26
58658;BME280;44428;45.630;13.786;2022-11-15T07:31:49;101690.69;;;10.87;95.18
58658;BME280;44428;45.630;13.786;2022-11-15T07:34:34;101684.38;;;10.90;94.89
58658;BME280;44428;45.630;13.786;2022-11-15T07:37:18;101690.50;;;10.90;94.89
58658;BME280;44428;45.630;13.786;2022-11-15T07:40:03;101686.91;;;10.91;94.83
58658;BME280;44428;45.630;13.786;2022-11-15T07:42:47;101693.06;;;11.08;93.65
58658;BME280;44428;45.630;13.786;2022-11-15T07:45:43;101693.88;;;11.24;93.29
58658;BME280;44428;45.630;13.786;2022-11-15T07:48:27;101681.22;;;11.45;91.40
58658;BME280;44428;45.630;13.786;2022-11-15T07:51:12;101674.16;;;11.60;91.71
58658;BME280;44428;45.630;13.786;2022-11-15T07:53:57;101688.19;;;11.76;91.12
58658;BME280;44428;45.630;13.786;2022-11-15T07:56:41;101691.31;;;11.83;90.17
58658;BME280;44428;45.630;13.786;2022-11-15T07:59:26;101683.47;;;11.81;90.93
58658;BME280;44428;45.630;13.786;2022-11-15T08:02:10;101679.34;;;11.91;89.36
58658;BME280;44428;45.630;13.786;2022-11-15T08:04:55;101680.50;;;12.02;88.42
58658;BME280;44428;45.630;13.786;2022-11-15T08:07:39;101670.66;;;12.04;88.80
58658;BME280;44428;45.630;13.786;2022-11-15T08:10:24;101667.63;;;12.10;89.42
58658;BME280;44428;45.630;13.786;2022-11-15T08:13:11;101673.72;;;12.26;88.72
58658;BME280;44428;45.630;13.786;2022-11-15T08:16:00;101671.59;;;12.31;88.92
58658;BME280;44428;45.630;13.786;2022-11-15T08:18:44;101676.75;;;12.34;88.86
58658;BME280;44428;45.630;13.786;2022-11-15T08:21:28;101657.81;;;12.41;88.31
58658;BME280;44428;45.630;13.786;2022-11-15T08:24:13;101666.69;;;12.54;86.95
58658;BME280;44428;45.630;13.786;2022-11-15T08:26:57;101668.56;;;12.52;87.31
58658;BME280;44428;45.630;13.786;2022-11-15T08:29:43;101678.97;;;12.55;88.39
58658;BME280;44428;45.630;13.786;2022-11-15T08:32:27;101674.44;;;12.57;88.73
58658;BME280;44428;45.630;13.786;2022-11-15T08:35:11;101678.78;;;12.58;88.38
58658;BME280;44428;45.630;13.786;2022-11-15T08:37:55;101668.94;;;12.60;88.72
58658;BME280;44428;45.630;13.786;2022-11-15T08:40:39;101670.34;;;12.66;88.37
58658;BME280;44428;45.630;13.786;2022-11-15T08:43:23;101677.59;;;12.76;86.73
58658;BME280;44428;45.630;13.786;2022-11-15T08:46:11;101670.63;;;12.75;87.74
58658;BME280;44428;45.630;13.786;2022-11-15T08:48:56;101677.41;;;12.79;88.41
58658;BME280;44428;45.630;13.786;2022-11-15T08:51:41;101670.97;;;12.83;88.19
58658;BME280;44428;45.630;13.786;2022-11-15T08:54:25;101679.38;;;12.90;88.28
58658;BME280;44428;45.630;13.786;2022-11-15T08:57:10;101681.72;;;12.95;87.92
58658;BME280;44428;45.630;13.786;2022-11-15T08:59:54;101679.56;;;13.01;86.70
58658;BME280;44428;45.630;13.786;2022-11-15T09:02:39;101678.84;;;13.12;87.11
58658;BME280;44428;45.630;13.786;2022-11-15T09:05:23;101674.47;;;13.25;87.13
58658;BME280;44428;45.630;13.786;2022-11-15T09:08:08;101677.69;;;13.43;83.32
58658;BME280;44428;45.630;13.786;2022-11-15T09:10:52;101667.94;;;13.44;84.42
58658;BME280;44428;45.630;13.786;2022-11-15T09:13:37;101679.41;;;13.57;84.48
58658;BME280;44428;45.630;13.786;2022-11-15T09:16:21;101678.38;;;13.72;83.29
58658;BME280;44428;45.630;13.786;2022-11-15T09:19:05;101671.59;;;14.07;81.86
58658;BME280;44428;45.630;13.786;2022-11-15T09:21:50;101677.75;;;14.33;80.94
58658;BME280;44428;45.630;13.786;2022-11-15T09:24:34;101673.06;;;14.24;80.98
58658;BME280;44428;45.630;13.786;2022-11-15T09:27:19;101683.09;;;14.07;81.11
58658;BME280;44428;45.630;13.786;2022-11-15T09:30:04;101672.66;;;14.04;79.99
58658;BME280;44428;45.630;13.786;2022-11-15T09:32:48;101678.19;;;14.01;80.18
58658;BME280;44428;45.630;13.786;2022-11-15T09:35:32;101680.66;;;14.04;81.53
58658;BME280;44428;45.630;13.786;2022-11-15T09:38:16;101670.09;;;14.15;79.39
58658;BME280;44428;45.630;13.786;2022-11-15T09:44:20;101656.88;;;15.48;73.41
58658;BME280;44428;45.630;13.786;2022-11-15T09:52:57;101653.34;;;15.72;70.74
58658;BME280;44428;45.630;13.786;2022-11-15T09:55:37;101653.50;;;15.46;70.54
58658;BME280;44428;45.630;13.786;2022-11-15T09:58:30;101657.97;;;15.10;72.17
58658;BME280;44428;45.630;13.786;2022-11-15T10:00:59;101651.78;;;14.86;72.86
58658;BME280;44428;45.630;13.786;2022-11-15T10:03:34;101649.16;;;14.73;73.92
58658;BME280;44428;45.630;13.786;2022-11-15T10:06:01;101644.94;;;14.71;75.49
58658;BME280;44428;45.630;13.786;2022-11-15T10:08:44;101640.63;;;14.81;75.97
58658;BME280;44428;45.630;13.786;2022-11-15T10:11:19;101635.41;;;14.79;73.76
58658;BME280;44428;45.630;13.786;2022-11-15T10:13:47;101634.06;;;14.74;73.69
58658;BME280;44428;45.630;13.786;2022-11-15T10:21:50;101626.47;;;14.31;75.96
58658;BME280;44428;45.630;13.786;2022-11-15T10:24:25;101621.59;;;14.25;75.76
58658;BME280;44428;45.630;13.786;2022-11-15T10:26:54;101620.56;;;14.14;76.61
58658;BME280;44428;45.630;13.786;2022-11-15T10:29:22;101612.06;;;14.09;77.13
58658;BME280;44428;45.630;13.786;2022-11-15T10:31:48;101601.84;;;14.03;76.92
58658;BME280;44428;45.630;13.786;2022-11-15T10:34:16;101617.81;;;14.03;77.44
58658;BME280;44428;45.630;13.786;2022-11-15T10:36:55;101603.38;;;14.07;77.46
58658;BME280;44428;45.630;13.786;2022-11-15T10:39:21;101595.88;;;14.12;77.67
58658;BME280;44428;45.630;13.786;2022-11-15T10:41:47;101592.06;;;14.16;77.91
58658;BME280;44428;45.630;13.786;2022-11-15T10:46:43;101589.31;;;14.05;75.90
58658;BME280;44428;45.630;13.786;2022-11-15T10:49:19;101584.63;;;14.09;77.58
58658;BME280;44428;45.630;13.786;2022-11-15T10:51:49;101576.97;;;14.17;76.88
58658;BME280;44428;45.630;13.786;2022-11-15T10:54:25;101577.50;;;14.46;76.79
58658;BME280;44428;45.630;13.786;2022-11-15T10:56:54;101572.56;;;15.14;74.58
58658;BME280;44428;45.630;13.786;2022-11-15T10:59:29;101557.19;;;15.75;69.46
58658;BME280;44428;45.630;13.786;2022-11-15T11:01:56;101556.94;;;15.78;67.91
58658;BME280;44428;45.630;13.786;2022-11-15T11:04:23;101560.81;;;15.74;69.05
58658;BME280;44428;45.630;13.786;2022-11-15T11:06:53;101553.06;;;15.82;68.35
58658;BME280;44428;45.630;13.786;2022-11-15T11:09:31;101541.81;;;16.01;68.56
58658;BME280;44428;45.630;13.786;2022-11-15T11:11:58;101541.53;;;17.23;65.50
58658;BME280;44428;45.630;13.786;2022-11-15T11:14:29;101537.34;;;18.22;61.45
58658;BME280;44428;45.630;13.786;2022-11-15T11:22:32;101527.56;;;21.56;49.94
58658;BME280;44428;45.630;13.786;2022-11-15T11:36:10;101509.84;;;18.01;57.06
58658;BME280;44428;45.630;13.786;2022-11-15T11:41:17;101495.44;;;17.82;58.57
58658;BME280;44428;45.630;13.786;2022-11-15T11:49:15;101498.53;;;16.52;62.73
58658;BME280;44428;45.630;13.786;2022-11-15T11:57:14;101495.63;;;15.67;65.85
58658;BME280;44428;45.630;13.786;2022-11-15T12:02:31;101492.00;;;15.45;67.03
58658;BME280;44428;45.630;13.786;2022-11-15T12:05:13;101489.34;;;15.79;67.08
58658;BME280;44428;45.630;13.786;2022-11-15T12:07:42;101469.63;;;18.31;59.82
58658;BME280;44428;45.630;13.786;2022-11-15T12:10:19;101467.72;;;20.57;51.25
58658;BME280;44428;45.630;13.786;2022-11-15T12:15:24;101455.00;;;22.39;45.19
58658;BME280;44428;45.630;13.786;2022-11-15T12:17:51;101443.66;;;23.34;43.67
58658;BME280;44428;45.630;13.786;2022-11-15T12:20:20;101451.50;;;22.47;44.05
58658;BME280;44428;45.630;13.786;2022-11-15T12:23:00;101446.56;;;20.80;47.68
58658;BME280;44428;45.630;13.786;2022-11-15T12:28:44;101447.09;;;18.24;54.47
58658;BME280;44428;45.630;13.786;2022-11-15T12:33:48;101445.81;;;16.98;58.06
58658;BME280;44428;45.630;13.786;2022-11-15T12:39:07;101438.81;;;16.32;61.70
58658;BME280;44428;45.630;13.786;2022-11-15T12:41:39;101433.34;;;16.13;62.31
58658;BME280;44428;45.630;13.786;2022-11-15T12:44:11;101432.88;;;15.96;63.41
58658;BME280;44428;45.630;13.786;2022-11-15T12:59:56;101421.03;;;15.22;69.80
58658;BME280;44428;45.630;13.786;2022-11-15T13:02:32;101425.41;;;15.11;70.07
58658;BME280;44428;45.630;13.786;2022-11-15T13:17:43;101422.50;;;14.92;72.90
58658;BME280;44428;45.630;13.786;2022-11-15T13:20:19;101411.81;;;14.81;73.47
58658;BME280;44428;45.630;13.786;2022-11-15T13:23:13;101418.09;;;14.69;73.95
58658;BME280;44428;45.630;13.786;2022-11-15T13:28:44;101404.22;;;14.52;73.00
58658;BME280;44428;45.630;13.786;2022-11-15T13:33:44;101398.47;;;14.70;72.31
58658;BME280;44428;45.630;13.786;2022-11-15T13:36:43;101399.97;;;14.74;71.95
58658;BME280;44428;45.630;13.786;2022-11-15T13:39:23;101410.59;;;14.74;71.55
58658;BME280;44428;45.630;13.786;2022-11-15T13:41:51;101400.47;;;14.90;71.16
58658;BME280;44428;45.630;13.786;2022-11-15T13:44:24;101399.25;;;14.94;70.46
58658;BME280;44428;45.630;13.786;2022-11-15T13:47:04;101398.78;;;14.89;70.67
58658;BME280;44428;45.630;13.786;2022-11-15T13:49:34;101408.41;;;14.79;70.90
58658;BME280;44428;45.630;13.786;2022-11-15T13:52:02;101399.72;;;14.77;71.39
58658;BME280;44428;45.630;13.786;2022-11-15T13:54:30;101409.00;;;14.60;72.16
58658;BME280;44428;45.630;13.786;2022-11-15T13:57:03;101403.50;;;14.50;73.16
58658;BME280;44428;45.630;13.786;2022-11-15T13:59:35;101407.78;;;14.40;73.65
58658;BME280;44428;45.630;13.786;2022-11-15T14:02:25;101407.03;;;14.27;74.01
58658;BME280;44428;45.630;13.786;2022-11-15T14:04:58;101406.88;;;14.17;74.99
58658;BME280;44428;45.630;13.786;2022-11-15T14:07:26;101397.53;;;14.11;75.58
58658;BME280;44428;45.630;13.786;2022-11-15T14:09:54;101408.41;;;14.08;76.01
58658;BME280;44428;45.630;13.786;2022-11-15T14:12:32;101406.06;;;14.04;76.48
58658;BME280;44428;45.630;13.786;2022-11-15T14:15:00;101394.81;;;14.00;76.80
58658;BME280;44428;45.630;13.786;2022-11-15T14:19:56;101390.41;;;13.88;77.59
58658;BME280;44428;45.630;13.786;2022-11-15T14:22:28;101382.13;;;13.80;77.83
58658;BME280;44428;45.630;13.786;2022-11-15T14:25:18;101365.63;;;13.63;79.28
58658;BME280;44428;45.630;13.786;2022-11-15T14:28:15;101384.59;;;13.59;79.46
58658;BME280;44428;45.630;13.786;2022-11-15T14:30:43;101382.47;;;13.51;80.14
58658;BME280;44428;45.630;13.786;2022-11-15T14:33:31;101384.81;;;13.43;80.55
58658;BME280;44428;45.630;13.786;2022-11-15T14:36:11;101381.88;;;13.35;80.97
58658;BME280;44428;45.630;13.786;2022-11-15T14:38:38;101373.38;;;13.29;81.53
58658;BME280;44428;45.630;13.786;2022-11-15T14:41:04;101371.13;;;13.23;81.79
58658;BME280;44428;45.630;13.786;2022-11-15T14:43:29;101370.59;;;13.18;82.13
58658;BME280;44428;45.630;13.786;2022-11-15T14:45:55;101366.56;;;13.13;82.03
58658;BME280;44428;45.630;13.786;2022-11-15T14:48:21;101363.41;;;13.07;82.45
58658;BME280;44428;45.630;13.786;2022-11-15T14:50:47;101372.22;;;13.08;82.61
58658;BME280;44428;45.630;13.786;2022-11-15T14:53:17;101365.63;;;13.01;83.09
58658;BME280;44428;45.630;13.786;2022-11-15T14:55:44;101367.56;;;12.99;83.42
58658;BME280;44428;45.630;13.786;2022-11-15T14:58:10;101360.25;;;12.90;84.11
58658;BME280;44428;45.630;13.786;2022-11-15T15:00:37;101358.53;;;12.89;84.05
58658;BME280;44428;45.630;13.786;2022-11-15T15:03:04;101355.56;;;12.80;84.21
58658;BME280;44428;45.630;13.786;2022-11-15T15:05:36;101357.69;;;12.75;84.75
58658;BME280;44428;45.630;13.786;2022-11-15T15:08:03;101359.78;;;12.70;84.96
58658;BME280;44428;45.630;13.786;2022-11-15T15:10:35;101370.41;;;12.70;85.19
58658;BME280;44428;45.630;13.786;2022-11-15T15:13:01;101368.94;;;12.66;84.83
58658;BME280;44428;45.630;13.786;2022-11-15T15:15:32;101367.25;;;12.65;84.55
58658;BME280;44428;45.630;13.786;2022-11-15T15:17:59;101358.75;;;12.60;85.35
58658;BME280;44428;45.630;13.786;2022-11-15T15:20:24;101350.03;;;12.58;85.34
58658;BME280;44428;45.630;13.786;2022-11-15T15:22:50;101351.97;;;12.56;85.18
58658;BME280;44428;45.630;13.786;2022-11-15T15:25:27;101350.03;;;12.58;84.55
58658;BME280;44428;45.630;13.786;2022-11-15T15:27:54;101356.31;;;12.57;84.51
58658;BME280;44428;45.630;13.786;2022-11-15T15:30:20;101351.97;;;12.56;84.32
58658;BME280;44428;45.630;13.786;2022-11-15T15:32:45;101344.94;;;12.55;84.33
58658;BME280;44428;45.630;13.786;2022-11-15T15:35:13;101346.88;;;12.53;84.61
58658;BME280;44428;45.630;13.786;2022-11-15T15:37:40;101339.66;;;12.55;84.74
58658;BME280;44428;45.630;13.786;2022-11-15T15:40:14;101329.25;;;12.52;85.17
58658;BME280;44428;45.630;13.786;2022-11-15T15:42:40;101334.56;;;12.52;85.18
58658;BME280;44428;45.630;13.786;2022-11-15T15:45:06;101334.56;;;12.52;84.81
58658;BME280;44428;45.630;13.786;2022-11-15T15:47:32;101324.38;;;12.46;84.17
58658;BME280;44428;45.630;13.786;2022-11-15T15:49:58;101335.81;;;12.46;84.63
58658;BME280;44428;45.630;13.786;2022-11-15T15:52:23;101339.34;;;12.47;85.02
58658;BME280;44428;45.630;13.786;2022-11-15T15:54:50;101334.13;;;12.45;84.88
58658;BME280;44428;45.630;13.786;2022-11-15T15:57:16;101341.31;;;12.43;85.51
58658;BME280;44428;45.630;13.786;2022-11-15T15:59:42;101333.50;;;12.42;85.56
58658;BME280;44428;45.630;13.786;2022-11-15T16:02:11;101337.09;;;12.41;85.75
58658;BME280;44428;45.630;13.786;2022-11-15T16:04:37;101336.91;;;12.44;85.65
58658;BME280;44428;45.630;13.786;2022-11-15T16:07:03;101330.72;;;12.43;85.76
58658;BME280;44428;45.630;13.786;2022-11-15T16:09:29;101330.09;;;12.40;85.83
58658;BME280;44428;45.630;13.786;2022-11-15T16:12:14;101333.28;;;12.45;85.44
58658;BME280;44428;45.630;13.786;2022-11-15T16:14:42;101331.59;;;12.44;85.70
58658;BME280;44428;45.630;13.786;2022-11-15T16:17:18;101318.75;;;12.37;86.11
58658;BME280;44428;45.630;13.786;2022-11-15T16:19:44;101320.53;;;12.37;86.63
58658;BME280;44428;45.630;13.786;2022-11-15T16:22:10;101308.25;;;12.36;87.03
58658;BME280;44428;45.630;13.786;2022-11-15T16:24:35;101311.88;;;12.35;87.11
58658;BME280;44428;45.630;13.786;2022-11-15T16:27:01;101311.03;;;12.34;87.45
58658;BME280;44428;45.630;13.786;2022-11-15T16:29:27;101309.31;;;12.33;87.92
58658;BME280;44428;45.630;13.786;2022-11-15T16:31:54;101306.78;;;12.32;88.16
58658;BME280;44428;45.630;13.786;2022-11-15T16:34:19;101294.66;;;12.28;89.00
58658;BME280;44428;45.630;13.786;2022-11-15T16:36:45;101302.31;;;12.32;89.66
58658;BME280;44428;45.630;13.786;2022-11-15T16:39:11;101294.59;;;12.29;90.08
58658;BME280;44428;45.630;13.786;2022-11-15T16:41:43;101299.13;;;12.27;90.76